Latest Weather Observations for Norfolk Island

IDN60801

Issued at 3:02 am EDT Tuesday 28 March 2017 (issued every 30 minutes, with the page automatically refreshed every 10 minutes)

About weather observations | Map of weather stations | Latest weather observations for NSW | Other Formats
Station Details ID: 200288 Name: NORFOLK ISLAND AERO Lat: -29.04 Lon: 167.94 Height: 111.73 m
Data from the previous 72 hours. | See also: Recent months at Norfolk Island
Date/Time
EDT
Temp
°C
App
Temp
°C
Dew
Point
°C
Rel
Hum
%
Delta-T
°C
Wind Press
QNH
hPa
Press
MSL
hPa
Rain since
9am
mm
Dir  Spd
km/h
Gust
km/h
Spd
kts
Gust
kts
28/03:00am 19.8 16.1 14.9 73 2.9 SSW 28 39 15 21 1012.2 1011.8 0.0
28/02:53am 19.9 17.3 13.8 68 3.5 SSW 20 39 11 21 1012.1 1011.7 0.0
28/02:30am 19.5 18.8 14.4 72 3.0 SW 11 13 6 7 1012.1 1011.7 0.0
28/02:00am 20.0 18.4 14.0 68 3.5 SW 15 19 8 10 1012.2 1011.8 0.0
28/01:30am 20.0 18.1 13.0 64 4.0 SW 15 20 8 11 1012.4 1012.0 0.0
28/01:00am 19.7 18.4 14.8 73 2.9 SSW 15 19 8 10 1012.5 1012.1 0.0
28/12:30am 20.0 18.7 14.9 72 3.0 SSW 15 20 8 11 1012.6 1012.2 0.0
28/12:00am 20.1 18.9 13.9 67 3.6 SW 13 20 7 11 1012.7 1012.3 0.0
 
Date/Time
EDT
Temp
°C
App
Temp
°C
Dew
Point
°C
Rel
Hum
%
Delta-T
°C
Wind Press
QNH
hPa
Press
MSL
hPa
Rain since
9am
mm
Dir  Spd
km/h
Gust
km/h
Spd
kts
Gust
kts
27/11:30pm 20.0 18.4 14.0 68 3.5 SW 15 19 8 10 1012.8 1012.4 0.0
27/11:00pm 20.1 18.9 13.9 67 3.6 SSW 13 17 7 9 1013.0 1012.6 0.0
27/10:30pm 20.5 18.4 13.6 64 4.0 SSW 17 24 9 13 1013.1 1012.7 0.0
27/10:00pm 20.8 18.2 13.1 61 4.4 SSW 19 26 10 14 1013.3 1012.9 0.0
27/09:30pm 20.8 18.7 13.5 63 4.2 SSW 17 24 9 13 1013.3 1012.9 0.0
27/09:00pm 20.3 18.7 13.9 66 3.7 SSW 15 20 8 11 1013.3 1012.9 0.0
27/08:30pm 20.5 18.8 13.6 64 4.0 SSW 15 22 8 12 1013.0 1012.6 0.0
27/08:00pm 20.8 19.1 13.7 64 4.1 SSW 15 22 8 12 1012.8 1012.4 0.0
27/07:30pm 20.5 18.8 13.6 64 4.0 SSW 15 20 8 11 1012.6 1012.2 0.0
27/07:00pm 20.7 18.8 13.0 61 4.4 SSW 15 26 8 14 1012.3 1011.9 0.0
27/06:30pm 20.8 19.0 13.3 62 4.3 SSW 15 20 8 11 1012.2 1011.8 0.0
27/06:00pm 20.9 18.8 13.6 63 4.2 SSW 17 28 9 15 1012.0 1011.6 0.0
27/05:30pm 21.6 19.7 14.1 62 4.4 SSW 17 24 9 13 1011.9 1011.5 0.0
27/05:00pm 21.9 19.5 13.9 60 4.7 SSW 19 24 10 13 1011.7 1011.3 0.0
27/04:30pm 22.1 19.5 13.3 57 5.1 SSW 19 28 10 15 1011.7 1011.3 0.0
27/04:00pm 23.0 20.5 13.4 54 5.6 SSW 19 30 10 16 1011.5 1011.0 0.0
27/03:30pm 23.4 20.6 13.3 53 5.9 SSW 20 30 11 16 1011.6 1011.1 0.0
27/03:00pm 23.0 20.1 13.0 53 5.8 SSW 20 30 11 16 1011.7 1011.3 0.0
27/02:30pm 24.0 21.6 14.4 55 5.7 SSW 20 28 11 15 1011.9 1011.5 0.0
27/02:00pm 23.5 21.2 14.2 56 5.5 SSW 19 30 10 16 1012.0 1011.6 0.0
27/01:30pm 23.5 20.2 15.0 59 5.1 S 26 30 14 16 1012.2 1011.8 0.0
27/01:00pm 23.3 21.1 14.9 59 5.0 S 20 30 11 16 1012.4 1012.0 0.0
27/12:30pm 24.1 21.9 14.9 56 5.5 SSW 20 28 11 15 1012.6 1012.2 0.0
27/12:00pm 23.5 21.4 14.6 57 5.3 SSW 19 26 10 14 1012.9 1012.5 0.0
27/11:30am 23.7 21.7 15.0 58 5.2 SSW 19 28 10 15 1013.2 1012.8 0.0
27/11:00am 23.4 21.7 15.8 62 4.6 SSW 19 26 10 14 1013.7 1013.2 0.0
27/10:30am 23.6 22.1 16.2 63 4.5 SSW 19 28 10 15 1013.8 1013.3 0.0
27/10:00am 23.1 21.3 15.5 62 4.6 S 19 24 10 13 1013.7 1013.2 0.0
27/09:30am 22.9 21.1 15.6 63 4.4 SSW 19 26 10 14 1013.8 1013.3 0.0
27/09:00am 22.8 21.5 15.9 65 4.2 SSW 17 22 9 12 1013.8 1013.3 1.8
27/08:30am 22.3 21.6 16.4 69 3.6 SSW 15 24 8 13 1013.8 1013.3 1.8
27/08:00am 22.1 21.2 15.8 67 3.8 S 15 22 8 12 1013.5 1013.1 1.8
27/07:30am 21.8 21.3 16.0 69 3.5 S 13 19 7 10 1013.3 1012.9 1.8
27/07:00am 21.2 20.5 16.4 74 2.9 S 15 22 8 12 1013.1 1012.7 1.8
27/06:30am 20.5 19.3 16.2 76 2.6 S 17 24 9 13 1012.9 1012.5 1.8
27/06:00am 20.2 19.0 17.1 82 1.9 SSW 19 32 10 17 1012.9 1012.5 1.8
27/05:30am 19.9 20.6 16.1 79 2.3 S 7 9 4 5 1012.6 1012.2 1.6
27/05:00am 20.2 19.6 15.7 75 2.7 S 13 19 7 10 1012.6 1012.2 1.6
27/04:30am 20.5 18.7 16.0 75 2.7 S 20 30 11 16 1012.6 1012.2 1.6
27/04:00am 20.5 20.8 17.8 84 1.7 SSW 13 17 7 9 1012.5 1012.1 1.6
27/03:30am 20.5 20.1 17.1 81 2.1 SSW 15 20 8 11 1012.5 1012.1 1.6
27/03:00am 20.6 20.2 17.2 81 2.1 SSW 15 19 8 10 1012.6 1012.2 1.6
27/02:30am 20.4 20.4 17.1 81 2.0 SSW 13 19 7 10 1012.7 1012.3 1.6
27/02:00am 20.3 20.3 17.2 82 1.9 SSW 13 15 7 8 1012.9 1012.5 1.6
27/01:30am 20.3 19.8 17.0 81 2.0 SSW 15 20 8 11 1013.2 1012.8 1.6
27/01:00am 20.6 19.8 17.2 81 2.1 SSW 17 24 9 13 1013.5 1013.1 1.6
27/12:30am 20.2 19.9 17.4 84 1.7 SSW 15 20 8 11 1013.8 1013.3 1.6
27/12:00am 19.8 21.8 18.8 94 0.6 SW 6 11 3 6 1013.8 1013.3 1.6
 
Date/Time
EDT
Temp
°C
App
Temp
°C
Dew
Point
°C
Rel
Hum
%
Delta-T
°C
Wind Press
QNH
hPa
Press
MSL
hPa
Rain since
9am
mm
Dir  Spd
km/h
Gust
km/h
Spd
kts
Gust
kts
26/11:52pm 19.8 22.7 19.0 95 0.5 WSW 2 6 1 3 1014.0 1013.5 1.6
26/11:30pm 19.7 21.2 18.9 95 0.5 WSW 9 11 5 6 1014.3 1013.8 1.4
26/11:10pm 19.8 20.7 18.5 92 0.8 WSW 11 20 6 11 1014.4 1013.9 0.6
26/11:00pm 19.9 23.1 18.9 94 0.6 CALM 0 7 0 4 1014.3 1013.8 0.4
26/10:46pm 20.1 21.9 18.8 92 0.8 W 7 11 4 6 1014.2 1013.7 0.4
26/10:45pm 20.0 21.9 19.0 94 0.6 W 7 11 4 6 1014.2 1013.7 0.4
26/10:31pm 20.0 21.1 18.9 93 0.7 W 11 17 6 9 1014.3 1013.8 0.4
26/10:30pm 20.1 21.3 19.0 93 0.7 W 11 19 6 10 1014.3 1013.8 0.4
26/10:15pm 20.0 21.5 18.9 93 0.7 WSW 9 15 5 8 1014.4 1013.9 0.4
26/10:00pm 19.7 21.4 18.6 93 0.7 W 7 9 4 5 1014.4 1013.9 0.4
26/09:36pm 20.0 21.4 18.6 92 0.9 WSW 9 11 5 6 1014.3 1013.8 0.4
26/09:30pm 20.1 21.0 18.3 89 1.1 WSW 11 15 6 8 1014.3 1013.8 0.4
26/09:20pm 20.2 22.4 18.4 89 1.1 SW 4 15 2 8 1014.2 1013.7 0.4
26/09:00pm 20.1 23.2 18.7 92 0.9 CALM 0 2 0 1 1013.9 1013.4 0.0
26/08:30pm 20.8 22.5 18.6 87 1.4 SSW 7 9 4 5 1013.8 1013.3 0.0
26/08:03pm 21.1 22.9 18.7 86 1.5 SW 7 11 4 6 1013.7 1013.2 0.0
26/08:00pm 21.1 22.9 18.7 86 1.5 SW 7 11 4 6 1013.5 1013.1 0.0
26/07:46pm 21.3 22.8 18.9 86 1.5 SSW 9 11 5 6 1013.5 1013.1 0.0
26/07:42pm 21.3 22.8 18.9 86 1.5 SSW 9 11 5 6 1013.4 1013.0 0.0
26/07:30pm 21.4 22.9 18.9 86 1.6 SSW 9 11 5 6 1013.2 1012.8 0.0
26/07:00pm 21.1 22.5 18.6 86 1.6 SSW 9 13 5 7 1013.0 1012.6 0.0
26/06:30pm 21.1 21.6 18.4 84 1.7 SSW 13 15 7 8 1012.8 1012.4 0.0
26/06:00pm 21.1 22.0 18.4 84 1.7 SSW 11 13 6 7 1012.5 1012.1 0.0
26/05:30pm 21.3 22.2 18.3 83 1.9 SSW 11 15 6 8 1012.3 1011.9 0.0
26/05:00pm 21.6 21.8 18.6 83 1.9 SSW 15 20 8 11 1012.2 1011.8 0.0
26/04:55pm 21.7 21.5 18.5 82 2.0 SSW 17 22 9 12 1012.1 1011.7 0.0
26/04:42pm 21.7 21.5 18.5 82 2.0 SSW 17 26 9 14 1012.0 1011.6 0.0
26/04:30pm 21.9 21.5 18.1 79 2.4 SSW 17 22 9 12 1012.2 1011.8 0.0
26/04:00pm 22.9 22.1 18.0 74 3.1 SW 19 26 10 14 1012.2 1011.8 0.0
26/03:49pm 23.1 23.0 17.8 72 3.3 SW 15 22 8 12 1012.3 1011.9 0.0
26/03:30pm 22.9 22.4 18.6 77 2.7 SW 19 24 10 13 1012.4 1012.0 0.0
26/03:27pm 22.9 22.5 19.0 78 2.5 SW 19 24 10 13 1012.3 1011.9 0.0
26/03:00pm 22.7 21.4 18.1 75 2.9 SW 22 30 12 16 1012.5 1012.1 0.0
26/02:30pm 22.6 22.0 18.8 79 2.4 SW 20 30 11 16 1012.5 1012.1 0.0
26/02:00pm 23.9 22.8 17.7 68 3.9 SW 20 28 11 15 1012.7 1012.3 0.0
26/01:30pm 24.2 23.0 17.5 66 4.2 SW 20 30 11 16 1012.8 1012.4 0.0
26/01:00pm 23.6 22.4 18.4 72 3.3 SW 22 30 12 16 1013.1 1012.7 0.0
26/12:30pm 23.7 23.3 19.3 76 2.8 SW 20 32 11 17 1013.5 1013.1 0.0
26/12:00pm 23.3 22.8 19.2 78 2.6 SW 20 28 11 15 1013.8 1013.3 0.0
26/11:30am 24.1 22.7 17.0 64 4.4 WSW 20 28 11 15 1014.0 1013.5 0.0
26/11:00am 23.6 22.8 17.0 66 4.1 WSW 17 22 9 12 1014.1 1013.6 0.0
26/10:30am 23.4 21.9 16.7 66 4.1 SW 20 30 11 16 1014.4 1013.9 0.0
26/10:00am 23.8 22.3 16.8 65 4.3 SW 20 32 11 17 1014.5 1014.0 0.0
26/09:30am 22.8 21.4 17.1 70 3.5 SW 20 28 11 15 1014.4 1013.9 0.0
26/09:00am 23.0 22.3 17.4 70 3.5 SW 17 28 9 15 1014.2 1013.7 8.6
26/08:30am 23.4 22.6 18.0 71 3.4 WSW 19 28 10 15 1014.3 1013.8 8.6
26/08:00am 22.8 22.0 17.0 70 3.6 WSW 17 26 9 14 1014.1 1013.6 8.6
26/07:30am 22.2 20.6 16.5 70 3.5 SW 20 28 11 15 1014.0 1013.5 8.6
26/07:00am 21.7 20.8 16.8 73 3.0 WSW 17 22 9 12 1013.9 1013.4 8.6
26/06:30am 20.9 20.6 16.5 76 2.7 SW 13 20 7 11 1013.3 1012.9 8.6
26/06:00am 20.6 19.8 16.1 75 2.7 SW 15 19 8 10 1012.9 1012.5 8.6
26/05:30am 20.6 20.1 16.8 79 2.3 WSW 15 20 8 11 1012.6 1012.2 8.6
26/05:00am 20.7 20.7 17.1 80 2.2 WSW 13 15 7 8 1012.5 1012.1 8.6
26/04:30am 20.9 20.4 16.8 77 2.5 WSW 15 20 8 11 1012.3 1011.9 8.6
26/04:00am 20.8 20.0 17.2 80 2.2 SW 17 22 9 12 1012.3 1011.9 8.6
26/03:30am 20.6 20.7 17.4 82 2.0 SW 13 19 7 10 1012.3 1011.9 8.6
26/03:00am 21.0 20.0 16.6 76 2.7 WSW 17 24 9 13 1012.5 1012.1 8.6
26/02:30am 21.1 19.8 16.8 76 2.6 WSW 19 26 10 14 1012.7 1012.3 8.6
26/02:00am 21.0 20.2 17.1 78 2.4 WSW 17 24 9 13 1012.8 1012.4 8.6
26/01:30am 20.9 21.1 18.5 86 1.5 SW 15 19 8 10 1013.3 1012.9 8.6
26/01:00am 20.8 21.2 18.2 85 1.6 WSW 13 19 7 10 1013.5 1013.1 8.6
26/12:30am 20.9 21.5 18.5 86 1.5 WSW 13 19 7 10 1013.8 1013.3 8.6
26/12:00am 20.8 21.4 18.7 88 1.3 SW 13 19 7 10 1013.9 1013.4 8.6
 
Date/Time
EDT
Temp
°C
App
Temp
°C
Dew
Point
°C
Rel
Hum
%
Delta-T
°C
Wind Press
QNH
hPa
Press
MSL
hPa
Rain since
9am
mm
Dir  Spd
km/h
Gust
km/h
Spd
kts
Gust
kts
25/11:30pm 20.9 22.7 19.5 92 0.9 WSW 9 13 5 7 1014.0 1013.5 8.6
25/11:00pm 21.3 22.6 19.4 89 1.2 SW 11 15 6 8 1014.3 1013.8 8.6
25/10:31pm 21.2 22.6 19.6 90 1.0 SW 11 15 6 8 1014.5 1014.0 8.6
25/10:30pm 21.2 22.7 19.8 92 0.9 SW 11 15 6 8 1014.4 1013.9 8.6
25/10:15pm 21.0 23.1 20.1 95 0.6 W 9 11 5 6 1014.5 1014.0 8.6
25/10:13pm 20.9 22.9 20.0 95 0.6 W 9 11 5 6 1014.4 1013.9 8.6
25/10:01pm 21.0 23.1 20.1 95 0.6 W 9 11 5 6 1014.4 1013.9 8.6
25/10:00pm 21.0 23.1 20.1 95 0.6 W 9 11 5 6 1014.4 1013.9 8.6
25/09:57pm 21.0 23.1 20.2 95 0.5 W 9 13 5 7 1014.4 1013.9 8.6
25/09:56pm 21.0 23.1 20.2 95 0.5 W 9 13 5 7 1014.4 1013.9 8.6
25/09:36pm 20.7 23.1 20.1 96 0.4 WSW 7 9 4 5 1014.3 1013.8 8.2
25/09:32pm 20.7 23.8 20.2 97 0.3 W 4 7 2 4 1014.3 1013.8 7.6
25/09:30pm 20.9 24.4 20.3 96 0.4 W 2 7 1 4 1014.3 1013.8 7.6
25/09:29pm 20.8 24.2 20.2 96 0.4 W 2 7 1 4 1014.3 1013.8 7.6
25/09:19pm 20.5 24.2 20.0 97 0.3 CALM 0 0 0 0 1014.2 1013.7 7.6
25/09:00pm 20.6 24.3 20.0 96 0.4 CALM 0 0 0 0 1014.2 1013.7 7.6
25/08:55pm 20.8 24.5 20.0 95 0.5 CALM 0 0 0 0 1014.2 1013.7 7.6
25/08:52pm 20.7 24.4 19.9 95 0.5 CALM 0 0 0 0 1014.2 1013.7 7.6
25/08:30pm 20.8 24.2 20.2 96 0.4 W 2 7 1 4 1014.1 1013.6 7.6
25/08:00pm 21.2 23.4 20.3 95 0.6 W 9 11 5 6 1013.9 1013.4 7.6
25/07:30pm 20.9 22.5 20.0 95 0.6 W 11 15 6 8 1013.3 1012.9 7.6
25/07:00pm 20.7 22.3 19.9 95 0.5 WSW 11 15 6 8 1012.9 1012.5 7.6
25/06:37pm 20.6 21.7 19.7 95 0.6 WSW 13 20 7 11 1012.7 1012.3 7.6
25/06:30pm 20.7 21.5 19.8 95 0.6 WSW 15 20 8 11 1012.7 1012.3 7.6
25/06:18pm 20.7 22.4 20.1 96 0.4 W 11 17 6 9 1012.9 1012.5 7.6
25/06:00pm 20.7 20.7 20.1 96 0.4 W 20 32 11 17 1012.9 1012.5 7.4
25/05:32pm 21.2 22.6 20.3 95 0.6 W 13 20 7 11 1012.8 1012.4 5.6
25/05:30pm 21.2 22.9 20.1 93 0.7 W 11 19 6 10 1012.8 1012.4 5.4
25/05:26pm 21.3 23.0 20.1 93 0.8 WNW 11 15 6 8 1012.8 1012.4 5.0
25/05:00pm 21.1 21.7 19.4 90 1.1 WNW 15 26 8 14 1012.4 1012.0 5.0
25/04:36pm 20.8 20.6 19.7 93 0.7 W 20 30 11 16 1011.8 1011.4 5.0
25/04:30pm 20.9 20.8 19.6 92 0.8 W 19 30 10 16 1012.0 1011.6 4.8
25/04:14pm 20.4 20.7 19.6 95 0.5 WNW 17 35 9 19 1012.4 1012.0 3.8
25/04:03pm 20.6 21.5 19.2 92 0.9 W 13 24 7 13 1012.4 1012.0 3.0
25/04:00pm 20.8 22.1 19.2 90 1.0 WNW 11 24 6 13 1012.4 1012.0 3.0
25/03:38pm 21.0 22.1 19.6 92 0.9 NW 13 24 7 13 1012.4 1012.0 2.2
25/03:30pm 21.2 22.0 19.8 92 0.9 WNW 15 28 8 15 1012.5 1012.1 1.6
25/03:00pm 21.6 22.8 19.9 90 1.1 NNW 13 20 7 11 1012.3 1011.9 1.0
25/02:37pm 21.6 22.5 20.0 91 1.0 WNW 15 28 8 15 1012.5 1012.1 1.0
25/02:30pm 21.7 23.0 20.2 91 1.0 WNW 13 28 7 15 1012.6 1012.2 1.0
25/02:16pm 21.4 21.8 19.8 91 1.0 WNW 17 32 9 17 1012.9 1012.5 0.2
25/02:00pm 23.9 23.9 19.7 77 2.7 NW 19 33 10 18 1013.0 1012.6 0.0
25/01:30pm 24.5 24.0 19.2 72 3.4 NNW 20 32 11 17 1013.4 1013.0 0.0
25/01:00pm 24.8 24.8 19.0 70 3.7 NNW 17 32 9 17 1013.5 1013.1 0.0
25/12:30pm 23.8 24.4 19.4 76 2.8 NW 15 28 8 15 1013.9 1013.4 0.0
25/12:00pm 23.5 24.1 19.5 78 2.6 NNW 15 26 8 14 1014.0 1013.5 0.0
25/11:30am 23.1 23.0 18.7 76 2.8 NW 17 28 9 15 1014.3 1013.8 0.0
25/11:00am 23.0 23.0 18.1 74 3.1 NW 15 28 8 15 1014.7 1014.2 0.0
25/10:30am 23.3 23.7 18.9 76 2.8 NW 15 28 8 15 1014.8 1014.3 0.0
25/10:00am 23.3 23.4 18.4 74 3.1 NNW 15 28 8 15 1014.7 1014.2 0.0
25/09:30am 23.1 23.4 17.8 72 3.3 NNW 13 24 7 13 1014.7 1014.2 0.0
25/09:00am 23.1 23.3 17.6 71 3.4 NW 13 26 7 14 1014.8 1014.3 0.0
25/08:30am 23.2 23.2 17.1 68 3.8 NNW 13 22 7 12 1014.8 1014.3 0.0
25/08:00am 22.7 22.8 17.4 72 3.3 WNW 13 26 7 14 1014.8 1014.3 0.0
25/07:30am 22.4 22.4 17.2 72 3.2 WNW 13 24 7 13 1014.9 1014.4 0.0
25/07:00am 22.2 22.5 17.0 72 3.2 WNW 11 19 6 10 1015.0 1014.5 0.0
25/06:30am 21.8 22.3 17.4 76 2.7 NW 11 19 6 10 1014.6 1014.1 0.0
25/06:00am 21.8 22.6 17.3 75 2.8 NNW 9 15 5 8 1014.1 1013.6 0.0
25/05:30am 21.6 22.3 17.0 75 2.8 NW 9 19 5 10 1014.2 1013.7 0.0
25/05:00am 21.6 21.7 16.5 73 3.1 N 11 20 6 11 1014.0 1013.5 0.0
25/04:30am 21.6 21.3 16.5 73 3.1 N 13 24 7 13 1014.0 1013.5 0.0
25/04:00am 21.8 21.9 16.6 72 3.2 NNW 11 17 6 9 1014.3 1013.8 0.0
25/03:30am 21.7 22.0 17.0 74 2.9 NNW 11 17 6 9 1014.6 1014.1 0.0
25/03:00am 21.8 22.1 17.1 74 2.9 NNW 11 17 6 9 1014.8 1014.3 0.0

Other Formats:

Comma delimited format used in spreadsheet applications
http://www.bom.gov.au/fwo/IDN60801/IDN60801.94996.axf

JavaScript Object Notation format (JSON) in row-major order
http://www.bom.gov.au/fwo/IDN60801/IDN60801.94996.json